createdAt,value
2022-11-06T00:00:44.545Z,49.31
2022-11-06T00:01:44.714Z,48.82
2022-11-06T00:02:44.692Z,49.15
2022-11-06T00:03:44.579Z,49.47
2022-11-06T00:04:44.615Z,48.82
2022-11-06T00:05:44.621Z,48.66
2022-11-06T00:06:44.527Z,48.98
2022-11-06T00:07:44.565Z,49.47
2022-11-06T00:08:44.537Z,47.37
2022-11-06T00:09:44.490Z,47.37
2022-11-06T00:10:44.554Z,46.57
2022-11-06T00:11:44.441Z,46.57
2022-11-06T00:12:44.471Z,46.41
2022-11-06T00:13:44.804Z,46.57
2022-11-06T00:14:44.464Z,46.73
2022-11-06T00:15:44.545Z,46.41
2022-11-06T00:16:44.509Z,46.25
2022-11-06T00:17:44.486Z,46.57
2022-11-06T00:18:44.527Z,47.05
2022-11-06T00:19:44.852Z,46.41
2022-11-06T00:20:44.504Z,46.41
2022-11-06T00:21:44.485Z,46.41
2022-11-06T00:22:44.427Z,47.05
2022-11-06T00:23:44.423Z,48.02
2022-11-06T00:24:44.503Z,46.57
2022-11-06T00:25:44.445Z,46.25
2022-11-06T00:26:45.844Z,46.57
2022-11-06T00:27:44.359Z,47.05
2022-11-06T00:28:44.330Z,46.57
2022-11-06T00:29:44.354Z,46.89
2022-11-06T00:30:44.324Z,47.37
2022-11-06T00:31:44.415Z,46.89
2022-11-06T00:32:44.481Z,46.57
2022-11-06T00:33:44.436Z,46.57
2022-11-06T00:34:44.437Z,46.57
2022-11-06T00:35:44.364Z,46.89
2022-11-06T00:36:44.366Z,46.57
2022-11-06T00:37:44.434Z,46.25
2022-11-06T00:38:44.437Z,47.86
2022-11-06T00:39:44.341Z,46.73
2022-11-06T00:40:44.388Z,46.73
2022-11-06T00:41:44.315Z,47.05
2022-11-06T00:42:44.324Z,46.25
2022-11-06T00:43:44.315Z,46.41
2022-11-06T00:44:44.329Z,46.57
2022-11-06T00:45:44.423Z,46.89
2022-11-06T00:46:44.287Z,46.57
2022-11-06T00:47:44.267Z,45.92
2022-11-06T00:48:44.194Z,46.73
2022-11-06T00:49:44.306Z,46.73
2022-11-06T00:50:44.183Z,47.05
2022-11-06T00:51:44.219Z,46.89
2022-11-06T00:52:44.184Z,45.92
2022-11-06T00:53:44.185Z,45.92
2022-11-06T00:54:44.167Z,46.08
2022-11-06T00:55:44.273Z,47.05
2022-11-06T00:56:44.274Z,47.05
2022-11-06T00:57:44.214Z,47.21
2022-11-06T00:58:44.269Z,48.50
2022-11-06T00:59:44.178Z,47.21
2022-11-06T01:00:44.140Z,46.73
2022-11-06T01:01:44.471Z,46.57
2022-11-06T01:02:44.280Z,46.89
2022-11-06T01:03:44.170Z,46.57
2022-11-06T01:04:44.170Z,46.57
2022-11-06T01:05:44.169Z,47.86
2022-11-06T01:06:44.197Z,47.05
2022-11-06T01:07:44.063Z,47.21
2022-11-06T01:08:44.047Z,47.05
2022-11-06T01:09:44.037Z,47.05
2022-11-06T01:10:45.041Z,46.73
2022-11-06T01:12:11.842Z,46.41
2022-11-06T01:12:46.095Z,47.21
2022-11-06T01:13:44.114Z,47.37
2022-11-06T01:14:44.134Z,47.70
2022-11-06T01:15:44.062Z,47.37
2022-11-06T01:16:44.099Z,47.37
2022-11-06T01:17:44.223Z,46.89
2022-11-06T01:18:44.139Z,46.41
2022-11-06T01:19:44.106Z,46.73
2022-11-06T01:20:44.038Z,46.57
2022-11-06T01:21:44.057Z,46.41
2022-11-06T01:22:44.076Z,46.25
2022-11-06T01:23:44.609Z,46.73
2022-11-06T01:24:44.166Z,46.89
2022-11-06T01:25:44.062Z,46.57
2022-11-06T01:27:04.865Z,46.89
2022-11-06T01:27:45.927Z,46.73
2022-11-06T01:28:44.141Z,47.86
2022-11-06T01:29:43.965Z,47.05
2022-11-06T01:30:43.931Z,46.57
2022-11-06T01:31:44.003Z,47.05
2022-11-06T01:32:43.905Z,48.02
2022-11-06T01:33:44.933Z,47.53
2022-11-06T01:34:43.864Z,46.73
2022-11-06T01:35:44.047Z,46.57
2022-11-06T01:36:43.964Z,46.57
2022-11-06T01:37:44.045Z,46.57
2022-11-06T01:38:43.925Z,47.21
2022-11-06T01:39:44.021Z,46.25
2022-11-06T01:40:43.914Z,46.25
2022-11-06T01:41:43.956Z,47.05
2022-11-06T01:42:43.893Z,46.41
2022-11-06T01:43:43.881Z,46.08
2022-11-06T01:44:43.943Z,46.25
2022-11-06T01:45:43.864Z,46.41
2022-11-06T01:46:43.974Z,46.41
2022-11-06T01:47:43.912Z,46.41
2022-11-06T01:48:43.905Z,46.57
2022-11-06T01:49:43.930Z,46.25
2022-11-06T01:50:44.871Z,46.57
2022-11-06T01:51:43.801Z,45.76
2022-11-06T01:52:43.819Z,47.37
2022-11-06T01:53:43.782Z,47.37
2022-11-06T01:54:43.740Z,46.89
2022-11-06T01:55:43.816Z,46.25
2022-11-06T01:56:43.750Z,46.41
2022-11-06T01:57:43.893Z,46.41
2022-11-06T01:58:43.821Z,46.57
2022-11-06T01:59:43.890Z,46.73
2022-11-06T02:00:43.813Z,47.70
2022-11-06T02:01:43.879Z,47.05
2022-11-06T02:02:44.866Z,47.37
2022-11-06T02:03:43.738Z,46.41
2022-11-06T02:04:43.815Z,46.41
2022-11-06T02:05:43.747Z,46.89
2022-11-06T02:06:43.761Z,46.25
2022-11-06T02:07:44.722Z,46.41
2022-11-06T02:08:43.739Z,46.57
2022-11-06T02:09:43.689Z,46.57
2022-11-06T02:10:43.715Z,47.05
2022-11-06T02:11:43.602Z,47.53
2022-11-06T02:12:43.638Z,47.05
2022-11-06T02:13:43.560Z,46.57
2022-11-06T02:14:43.578Z,46.41
2022-11-06T02:15:43.599Z,46.57
2022-11-06T02:16:43.566Z,47.05
2022-11-06T02:17:43.578Z,46.57
2022-11-06T02:18:43.556Z,46.89
2022-11-06T02:19:43.542Z,46.57
2022-11-06T02:20:43.568Z,46.41
2022-11-06T02:21:43.688Z,47.05
2022-11-06T02:22:43.927Z,47.05
2022-11-06T02:23:43.634Z,47.21
2022-11-06T02:24:43.619Z,46.73
2022-11-06T02:25:43.795Z,46.73
2022-11-06T02:26:43.778Z,46.73
2022-11-06T02:27:43.539Z,46.41
2022-11-06T02:28:43.585Z,47.21
2022-11-06T02:29:43.561Z,47.21
2022-11-06T02:30:43.563Z,46.41
2022-11-06T02:31:43.500Z,46.25
2022-11-06T02:32:43.541Z,46.41
2022-11-06T02:33:43.588Z,48.02
2022-11-06T02:34:43.531Z,48.18
2022-11-06T02:35:43.520Z,48.18
2022-11-06T02:36:43.433Z,47.21
2022-11-06T02:37:43.455Z,47.05
2022-11-06T02:38:43.399Z,46.73
2022-11-06T02:39:44.463Z,46.41
2022-11-06T02:40:43.476Z,46.57
2022-11-06T02:41:43.481Z,46.73
2022-11-06T02:42:43.500Z,46.89
2022-11-06T02:43:43.442Z,47.21
2022-11-06T02:44:43.773Z,46.89
2022-11-06T02:45:43.460Z,46.57
2022-11-06T02:46:43.463Z,46.08
2022-11-06T02:47:43.445Z,46.08
2022-11-06T02:48:43.524Z,46.08
2022-11-06T02:49:43.448Z,46.41
2022-11-06T02:50:43.484Z,47.21
2022-11-06T02:51:43.466Z,47.05
2022-11-06T02:52:43.360Z,47.05
2022-11-06T02:53:44.083Z,47.05
2022-11-06T02:54:43.302Z,46.89
2022-11-06T02:55:44.324Z,46.73
2022-11-06T02:56:43.294Z,47.37
2022-11-06T02:57:43.339Z,47.53
2022-11-06T02:58:47.871Z,47.37
2022-11-06T02:59:45.261Z,47.53
2022-11-06T03:00:43.296Z,47.21
2022-11-06T03:01:43.430Z,48.34
2022-11-06T03:02:43.421Z,46.89
2022-11-06T03:03:43.318Z,46.89
2022-11-06T03:04:43.323Z,46.89
2022-11-06T03:05:43.402Z,47.53
2022-11-06T03:06:43.283Z,47.37
2022-11-06T03:07:43.337Z,47.05
2022-11-06T03:08:43.280Z,47.05
2022-11-06T03:09:43.298Z,46.89
2022-11-06T03:10:43.280Z,47.05
2022-11-06T03:11:43.278Z,46.89
2022-11-06T03:12:43.210Z,47.37
2022-11-06T03:13:43.157Z,47.05
2022-11-06T03:14:43.172Z,47.37
2022-11-06T03:15:43.219Z,46.89
2022-11-06T03:16:43.302Z,46.57
2022-11-06T03:17:43.205Z,47.53
2022-11-06T03:18:43.233Z,47.21
2022-11-06T03:19:43.170Z,46.73
2022-11-06T03:20:43.200Z,47.53
2022-11-06T03:21:44.179Z,47.05
2022-11-06T03:22:43.178Z,46.73
2022-11-06T03:23:43.233Z,46.41
2022-11-06T03:24:43.146Z,46.57
2022-11-06T03:25:43.179Z,47.05
2022-11-06T03:26:43.169Z,47.05
2022-11-06T03:27:43.350Z,47.05
2022-11-06T03:28:43.219Z,47.21
2022-11-06T03:29:43.148Z,46.73
2022-11-06T03:30:43.136Z,46.41
2022-11-06T03:31:43.097Z,46.41
2022-11-06T03:32:43.046Z,47.05
2022-11-06T03:33:43.029Z,47.86
2022-11-06T03:34:42.998Z,49.31
2022-11-06T03:35:43.087Z,48.18
2022-11-06T03:36:43.159Z,47.86
2022-11-06T03:38:04.143Z,47.53
2022-11-06T03:38:43.005Z,47.86
2022-11-06T03:39:43.080Z,47.21
2022-11-06T03:40:43.629Z,47.05
2022-11-06T03:41:43.044Z,47.05
2022-11-06T03:42:43.044Z,46.73
2022-11-06T03:43:43.098Z,46.73
2022-11-06T03:44:43.000Z,49.63
2022-11-06T03:45:43.001Z,49.31
2022-11-06T03:46:43.045Z,49.31
2022-11-06T03:47:43.016Z,49.47
2022-11-06T03:48:42.997Z,48.34
2022-11-06T03:49:42.904Z,46.89
2022-11-06T03:50:42.917Z,47.05
2022-11-06T03:51:42.881Z,46.41
2022-11-06T03:52:43.390Z,46.08
2022-11-06T03:53:44.102Z,46.25
2022-11-06T03:54:42.863Z,46.73
2022-11-06T03:55:42.977Z,46.57
2022-11-06T03:56:43.001Z,47.53
2022-11-06T03:57:42.955Z,47.70
2022-11-06T03:58:42.951Z,47.70
2022-11-06T03:59:44.005Z,47.05
2022-11-06T04:00:42.923Z,46.41
2022-11-06T04:01:43.013Z,46.57
2022-11-06T04:02:43.133Z,47.21
2022-11-06T04:03:42.853Z,47.05
2022-11-06T04:04:42.925Z,47.37
2022-11-06T04:05:42.888Z,47.05
2022-11-06T04:06:42.883Z,46.89
2022-11-06T04:07:42.841Z,46.89
2022-11-06T04:08:42.761Z,47.05
2022-11-06T04:09:42.762Z,47.70
2022-11-06T04:10:42.805Z,47.53
2022-11-06T04:11:42.843Z,47.21
2022-11-06T04:12:42.731Z,48.18
2022-11-06T04:13:42.704Z,46.25
2022-11-06T04:14:42.701Z,46.41
2022-11-06T04:15:42.857Z,46.89
2022-11-06T04:16:42.846Z,47.37
2022-11-06T04:17:42.834Z,47.53
2022-11-06T04:18:42.800Z,46.89
2022-11-06T04:19:42.755Z,46.41
2022-11-06T04:20:42.791Z,46.73
2022-11-06T04:21:42.814Z,46.73
2022-11-06T04:22:43.607Z,47.37
2022-11-06T04:23:42.714Z,47.37
2022-11-06T04:24:42.744Z,48.02
2022-11-06T04:25:42.736Z,47.70
2022-11-06T04:26:42.761Z,48.18
2022-11-06T04:27:42.682Z,47.70
2022-11-06T04:28:42.733Z,47.05
2022-11-06T04:29:42.707Z,46.73
2022-11-06T04:30:42.685Z,46.89
2022-11-06T04:31:42.643Z,47.05
2022-11-06T04:32:42.639Z,47.05
2022-11-06T04:33:42.595Z,47.05
2022-11-06T04:34:42.612Z,46.89
2022-11-06T04:35:42.530Z,46.57
2022-11-06T04:36:42.566Z,47.70
2022-11-06T04:37:42.613Z,47.05
2022-11-06T04:38:42.559Z,47.86
2022-11-06T04:39:42.522Z,47.21
2022-11-06T04:40:42.522Z,47.37
2022-11-06T04:41:42.518Z,47.05
2022-11-06T04:42:42.565Z,47.21
2022-11-06T04:43:42.643Z,47.86
2022-11-06T04:44:43.114Z,47.70
2022-11-06T04:45:42.580Z,48.34
2022-11-06T04:46:42.539Z,47.86
2022-11-06T04:47:42.582Z,48.18
2022-11-06T04:48:42.640Z,47.37
2022-11-06T04:49:42.567Z,47.21
2022-11-06T04:50:42.557Z,47.05
2022-11-06T04:51:42.569Z,46.73
2022-11-06T04:52:42.611Z,46.89
2022-11-06T04:53:42.500Z,46.73
2022-11-06T04:55:01.455Z,47.05
2022-11-06T04:55:42.465Z,46.57
2022-11-06T04:56:46.055Z,46.57
2022-11-06T04:57:43.406Z,46.41
2022-11-06T04:58:42.459Z,46.25
2022-11-06T04:59:42.443Z,46.57
2022-11-06T05:00:42.469Z,46.89
2022-11-06T05:01:42.624Z,47.37
2022-11-06T05:02:42.565Z,46.89
2022-11-06T05:03:42.395Z,46.73
2022-11-06T05:04:42.535Z,46.89
2022-11-06T05:05:42.525Z,47.37
2022-11-06T05:06:42.460Z,47.86
2022-11-06T05:07:42.452Z,47.37
2022-11-06T05:08:42.400Z,47.05
2022-11-06T05:09:42.413Z,48.02
2022-11-06T05:10:42.449Z,47.53
2022-11-06T05:11:42.387Z,47.21
2022-11-06T05:12:42.413Z,47.21
2022-11-06T05:13:42.355Z,46.89
2022-11-06T05:14:42.376Z,48.18
2022-11-06T05:15:42.310Z,47.05
2022-11-06T05:16:42.303Z,46.89
2022-11-06T05:17:42.251Z,47.37
2022-11-06T05:18:42.436Z,47.05
2022-11-06T05:19:42.290Z,48.18
2022-11-06T05:20:42.241Z,48.18
2022-11-06T05:21:42.267Z,47.70
2022-11-06T05:22:42.265Z,47.05
2022-11-06T05:23:42.208Z,47.05
2022-11-06T05:24:42.328Z,47.05
2022-11-06T05:25:42.298Z,47.70
2022-11-06T05:26:42.341Z,46.73
2022-11-06T05:27:42.276Z,47.53
2022-11-06T05:28:43.130Z,46.89
2022-11-06T05:29:42.289Z,48.34
2022-11-06T05:30:42.265Z,49.47
2022-11-06T05:31:42.233Z,47.53
2022-11-06T05:32:43.317Z,47.05
2022-11-06T05:33:42.263Z,47.05
2022-11-06T05:34:42.270Z,47.21
2022-11-06T05:35:42.251Z,47.37
2022-11-06T05:36:42.218Z,47.05
2022-11-06T05:37:42.438Z,46.73
2022-11-06T05:38:42.120Z,47.53
2022-11-06T05:39:42.327Z,47.53
2022-11-06T05:40:43.079Z,47.05
2022-11-06T05:41:42.103Z,46.73
2022-11-06T05:42:42.143Z,46.89
2022-11-06T05:43:42.172Z,47.70
2022-11-06T05:44:42.080Z,49.15
2022-11-06T05:45:42.098Z,47.37
2022-11-06T05:46:48.717Z,48.34
2022-11-06T05:47:44.028Z,47.37
2022-11-06T05:48:42.087Z,46.41
2022-11-06T05:49:42.173Z,47.05
2022-11-06T05:50:42.061Z,47.37
2022-11-06T05:51:42.121Z,47.05
2022-11-06T05:52:42.114Z,46.89
2022-11-06T05:53:42.034Z,46.73
2022-11-06T05:54:43.335Z,46.89
2022-11-06T05:55:42.105Z,46.89
2022-11-06T05:56:42.586Z,46.41
2022-11-06T05:57:42.112Z,46.57
2022-11-06T05:58:42.093Z,47.21
2022-11-06T05:59:42.127Z,48.18
2022-11-06T06:00:41.951Z,47.05
2022-11-06T06:01:42.126Z,47.21
2022-11-06T06:02:42.179Z,46.89
2022-11-06T06:03:42.089Z,47.86
2022-11-06T06:04:41.941Z,47.21
2022-11-06T06:05:41.965Z,47.21
2022-11-06T06:06:41.926Z,48.34
2022-11-06T06:07:41.999Z,47.53
2022-11-06T06:08:41.917Z,48.18
2022-11-06T06:09:42.085Z,48.98
2022-11-06T06:10:42.055Z,48.82
2022-11-06T06:11:41.913Z,48.50
2022-11-06T06:12:42.001Z,47.37
2022-11-06T06:13:41.969Z,47.21
2022-11-06T06:14:42.648Z,47.86
2022-11-06T06:15:41.918Z,46.89
2022-11-06T06:16:41.976Z,47.05
2022-11-06T06:17:41.853Z,47.86
2022-11-06T06:18:41.947Z,47.53
2022-11-06T06:19:41.928Z,46.73
2022-11-06T06:20:41.956Z,47.21
2022-11-06T06:21:41.976Z,47.37
2022-11-06T06:22:41.966Z,46.57
2022-11-06T06:23:41.828Z,46.57
2022-11-06T06:24:41.955Z,48.02
2022-11-06T06:25:41.907Z,48.18
2022-11-06T06:26:41.799Z,47.37
2022-11-06T06:27:41.893Z,47.86
2022-11-06T06:28:41.904Z,47.21
2022-11-06T06:29:41.789Z,49.47
2022-11-06T06:30:41.900Z,49.15
2022-11-06T06:31:41.856Z,50.76
2022-11-06T06:32:41.824Z,52.53
2022-11-06T06:33:41.747Z,51.24
2022-11-06T06:34:41.731Z,49.95
2022-11-06T06:35:41.727Z,48.34
2022-11-06T06:36:41.877Z,47.37
2022-11-06T06:37:41.696Z,47.05
2022-11-06T06:38:42.015Z,47.70
2022-11-06T06:39:41.720Z,50.11
2022-11-06T06:40:41.782Z,50.27
2022-11-06T06:41:41.712Z,48.50
2022-11-06T06:42:41.767Z,47.53
2022-11-06T06:43:41.801Z,51.24
2022-11-06T06:44:41.684Z,49.95
2022-11-06T06:45:41.809Z,49.79
2022-11-06T06:46:41.753Z,50.92
2022-11-06T06:47:41.655Z,50.27
2022-11-06T06:48:41.708Z,51.72
2022-11-06T06:49:41.785Z,51.56
2022-11-06T06:50:41.645Z,48.02
2022-11-06T06:51:41.754Z,49.79
2022-11-06T06:52:41.691Z,47.70
2022-11-06T06:53:41.612Z,48.82
2022-11-06T06:54:41.736Z,47.53
2022-11-06T06:55:41.791Z,47.70
2022-11-06T06:56:41.575Z,47.70
2022-11-06T06:57:41.848Z,47.86
2022-11-06T06:58:41.663Z,47.53
2022-11-06T06:59:41.569Z,47.53
2022-11-06T07:00:41.655Z,48.18
2022-11-06T07:01:41.708Z,48.18
2022-11-06T07:02:41.545Z,48.18
2022-11-06T07:03:41.581Z,47.70
2022-11-06T07:04:41.545Z,48.18
2022-11-06T07:05:41.564Z,46.89
2022-11-06T07:06:41.525Z,47.21
2022-11-06T07:07:41.608Z,48.50
2022-11-06T07:08:41.498Z,47.86
2022-11-06T07:09:41.508Z,48.18
2022-11-06T07:10:41.504Z,48.66
2022-11-06T07:11:41.530Z,47.70
2022-11-06T07:12:41.547Z,48.66
2022-11-06T07:13:41.567Z,48.98
2022-11-06T07:14:41.468Z,48.18
2022-11-06T07:15:41.538Z,47.37
2022-11-06T07:16:41.596Z,47.86
2022-11-06T07:17:41.488Z,48.98
2022-11-06T07:18:41.605Z,48.18
2022-11-06T07:19:41.678Z,47.53
2022-11-06T07:20:41.384Z,48.34
2022-11-06T07:21:41.565Z,48.34
2022-11-06T07:22:41.450Z,48.66
2022-11-06T07:23:41.523Z,47.86
2022-11-06T07:24:41.520Z,47.21
2022-11-06T07:25:41.487Z,48.18
2022-11-06T07:26:41.386Z,48.98
2022-11-06T07:27:41.405Z,47.70
2022-11-06T07:28:41.453Z,49.47
2022-11-06T07:29:41.465Z,48.18
2022-11-06T07:30:41.424Z,47.53
2022-11-06T07:31:41.429Z,48.66
2022-11-06T07:32:41.380Z,49.15
2022-11-06T07:33:41.477Z,49.63
2022-11-06T07:34:41.407Z,48.34
2022-11-06T07:35:41.568Z,48.18
2022-11-06T07:36:41.489Z,48.50
2022-11-06T07:37:41.459Z,47.70
2022-11-06T07:38:41.605Z,48.18
2022-11-06T07:39:41.424Z,49.15
2022-11-06T07:40:41.359Z,49.31
2022-11-06T07:41:41.494Z,49.79
2022-11-06T07:42:43.627Z,48.50
2022-11-06T07:43:42.436Z,48.82
2022-11-06T07:44:41.262Z,48.34
2022-11-06T07:45:41.222Z,48.50
2022-11-06T07:46:41.321Z,48.66
2022-11-06T07:47:41.230Z,48.18
2022-11-06T07:48:41.229Z,48.34
2022-11-06T07:49:42.172Z,49.31
2022-11-06T07:50:41.190Z,48.98
2022-11-06T07:51:41.193Z,48.66
2022-11-06T07:52:41.274Z,48.66
2022-11-06T07:53:41.267Z,49.47
2022-11-06T07:54:41.437Z,50.11
2022-11-06T07:55:42.507Z,47.70
2022-11-06T07:56:42.717Z,49.15
2022-11-06T07:57:41.263Z,48.50
2022-11-06T07:58:41.220Z,48.50
2022-11-06T07:59:41.207Z,47.86
2022-11-06T08:00:41.220Z,49.15
2022-11-06T08:01:41.306Z,47.70
2022-11-06T08:02:41.296Z,47.53
2022-11-06T08:03:41.231Z,47.70
2022-11-06T08:04:41.277Z,49.63
2022-11-06T08:05:41.142Z,49.15
2022-11-06T08:06:41.145Z,49.15
2022-11-06T08:07:41.173Z,49.63
2022-11-06T08:08:42.110Z,48.66
2022-11-06T08:09:41.111Z,50.27
2022-11-06T08:10:41.137Z,49.47
2022-11-06T08:11:41.188Z,50.43
2022-11-06T08:12:41.127Z,48.66
2022-11-06T08:13:41.123Z,49.15
2022-11-06T08:14:42.084Z,49.15
2022-11-06T08:15:41.087Z,49.47
2022-11-06T08:16:41.105Z,49.63
2022-11-06T08:17:41.098Z,49.47
2022-11-06T08:18:41.090Z,50.76
2022-11-06T08:19:41.062Z,48.50
2022-11-06T08:20:41.048Z,48.66
2022-11-06T08:21:41.157Z,50.27
2022-11-06T08:22:41.081Z,49.79
2022-11-06T08:23:41.129Z,49.15
2022-11-06T08:24:40.942Z,48.98
2022-11-06T08:25:40.981Z,48.50
2022-11-06T08:26:40.972Z,50.60
2022-11-06T08:27:41.000Z,48.82
2022-11-06T08:28:41.004Z,50.60
2022-11-06T08:29:41.800Z,47.86
2022-11-06T08:30:41.899Z,48.18
2022-11-06T08:31:40.901Z,49.63
2022-11-06T08:32:40.980Z,48.82
2022-11-06T08:33:41.028Z,49.31
2022-11-06T08:34:40.960Z,47.05
2022-11-06T08:35:40.986Z,49.47
2022-11-06T08:36:42.294Z,49.47
2022-11-06T08:37:40.990Z,49.95
2022-11-06T08:38:41.052Z,48.50
2022-11-06T08:39:40.926Z,48.34
2022-11-06T08:40:40.937Z,49.47
2022-11-06T08:41:40.911Z,50.43
2022-11-06T08:42:41.012Z,50.76
2022-11-06T08:43:40.961Z,50.92
2022-11-06T08:44:41.042Z,52.37
2022-11-06T08:45:40.812Z,51.24
2022-11-06T08:46:40.830Z,49.95
2022-11-06T08:47:40.799Z,51.24
2022-11-06T08:48:40.867Z,52.05
2022-11-06T08:49:40.904Z,50.92
2022-11-06T08:50:40.837Z,52.37
2022-11-06T08:51:40.874Z,52.85
2022-11-06T08:52:40.842Z,50.43
2022-11-06T08:53:40.994Z,49.79
2022-11-06T08:54:42.041Z,49.95
2022-11-06T08:55:40.804Z,49.15
2022-11-06T08:56:40.821Z,48.98
2022-11-06T08:57:40.813Z,49.15
2022-11-06T08:58:40.792Z,49.79
2022-11-06T08:59:52.554Z,49.47
2022-11-06T09:00:41.866Z,48.82
2022-11-06T09:01:40.918Z,50.76
2022-11-06T09:02:40.775Z,49.31
2022-11-06T09:03:40.783Z,48.66
2022-11-06T09:04:41.618Z,49.15
2022-11-06T09:05:41.816Z,49.63
2022-11-06T09:06:40.694Z,48.98
2022-11-06T09:07:40.693Z,49.63
2022-11-06T09:08:40.734Z,48.98
2022-11-06T09:09:40.772Z,49.95
2022-11-06T09:10:40.731Z,51.24
2022-11-06T09:11:40.803Z,52.21
2022-11-06T09:12:40.750Z,50.27
2022-11-06T09:13:40.673Z,50.27
2022-11-06T09:14:40.774Z,51.72
2022-11-06T09:15:41.198Z,53.98
2022-11-06T09:16:40.709Z,52.37
2022-11-06T09:17:40.739Z,51.40
2022-11-06T09:18:40.670Z,51.40
2022-11-06T09:19:40.633Z,50.11
2022-11-06T09:20:40.701Z,50.92
2022-11-06T09:21:40.696Z,49.31
2022-11-06T09:22:40.579Z,49.47
2022-11-06T09:23:40.613Z,51.08
2022-11-06T09:25:02.128Z,50.43
2022-11-06T09:25:42.520Z,50.76
2022-11-06T09:26:40.719Z,51.40
2022-11-06T09:27:40.586Z,51.40
2022-11-06T09:28:41.538Z,49.63
2022-11-06T09:29:40.505Z,49.79
2022-11-06T09:30:40.456Z,52.05
2022-11-06T09:31:40.525Z,50.60
2022-11-06T09:32:40.554Z,50.92
2022-11-06T09:33:40.464Z,50.43
2022-11-06T09:34:40.446Z,50.92
2022-11-06T09:35:40.490Z,49.15
2022-11-06T09:36:40.513Z,49.31
2022-11-06T09:37:40.500Z,49.31
2022-11-06T09:38:40.540Z,50.11
2022-11-06T09:39:40.536Z,51.40
2022-11-06T09:40:40.501Z,51.08
2022-11-06T09:41:40.485Z,51.08
2022-11-06T09:42:40.521Z,49.63
2022-11-06T09:44:42.421Z,51.40
2022-11-06T09:45:40.471Z,52.05
2022-11-06T09:46:40.503Z,51.56
2022-11-06T09:47:40.435Z,50.76
2022-11-06T09:48:40.513Z,51.40
2022-11-06T09:49:40.426Z,50.76
2022-11-06T09:50:40.463Z,49.95
2022-11-06T09:51:40.490Z,52.53
2022-11-06T09:52:40.449Z,51.40
2022-11-06T09:53:40.404Z,49.95
2022-11-06T09:54:40.354Z,50.27
2022-11-06T09:55:40.373Z,50.27
2022-11-06T09:56:40.311Z,49.79
2022-11-06T09:57:40.307Z,50.11
2022-11-06T09:58:40.456Z,51.08
2022-11-06T09:59:40.502Z,50.11
2022-11-06T10:00:40.286Z,52.37
2022-11-06T10:01:40.489Z,50.11
2022-11-06T10:02:40.495Z,51.40
2022-11-06T10:03:40.368Z,50.60
2022-11-06T10:04:40.414Z,51.24
2022-11-06T10:05:40.323Z,51.72
2022-11-06T10:06:41.384Z,50.43
2022-11-06T10:07:40.302Z,50.27
2022-11-06T10:08:40.849Z,50.60
2022-11-06T10:09:40.373Z,50.60
2022-11-06T10:10:40.311Z,50.43
2022-11-06T10:11:40.294Z,51.40
2022-11-06T10:12:40.282Z,50.43
2022-11-06T10:13:40.282Z,50.92
2022-11-06T10:14:40.344Z,50.27
2022-11-06T10:15:40.422Z,50.11
2022-11-06T10:16:40.332Z,51.40
2022-11-06T10:17:40.233Z,52.69
2022-11-06T10:18:40.369Z,53.01
2022-11-06T10:19:40.500Z,50.76
2022-11-06T10:20:40.339Z,51.88
2022-11-06T10:21:40.144Z,52.05
2022-11-06T10:22:40.295Z,51.88
2022-11-06T10:23:40.102Z,50.43
2022-11-06T10:24:40.216Z,50.76
2022-11-06T10:25:40.227Z,51.40
2022-11-06T10:26:40.311Z,51.40
2022-11-06T10:27:40.425Z,52.53
2022-11-06T10:28:40.672Z,53.50
2022-11-06T10:29:40.246Z,53.01
2022-11-06T10:30:40.200Z,52.85
2022-11-06T10:31:40.257Z,51.88
2022-11-06T10:32:40.256Z,50.60
2022-11-06T10:33:40.203Z,50.60
2022-11-06T10:34:40.646Z,52.21
2022-11-06T10:35:40.654Z,51.08
2022-11-06T10:36:40.270Z,52.53
2022-11-06T10:37:40.236Z,52.69
2022-11-06T10:38:40.030Z,52.05
2022-11-06T10:39:40.074Z,50.76
2022-11-06T10:40:39.996Z,51.72
2022-11-06T10:41:40.094Z,52.05
2022-11-06T10:42:40.029Z,52.37
2022-11-06T10:43:40.256Z,51.24
2022-11-06T10:44:40.128Z,50.43
2022-11-06T10:45:40.056Z,51.40
2022-11-06T10:46:40.241Z,52.05
2022-11-06T10:47:40.081Z,52.05
2022-11-06T10:48:41.584Z,51.40
2022-11-06T10:49:41.370Z,51.24
2022-11-06T10:50:40.087Z,52.37
2022-11-06T10:51:40.077Z,50.43
2022-11-06T10:52:40.015Z,52.85
2022-11-06T10:53:40.608Z,55.11
2022-11-06T10:54:40.055Z,52.53
2022-11-06T10:55:39.957Z,50.76
2022-11-06T10:56:39.935Z,50.92
2022-11-06T10:57:40.104Z,50.43
2022-11-06T10:58:40.077Z,52.05
2022-11-06T10:59:39.917Z,52.53
2022-11-06T11:00:39.971Z,52.53
2022-11-06T11:01:40.001Z,52.05
2022-11-06T11:02:40.095Z,54.46
2022-11-06T11:03:39.925Z,53.33
2022-11-06T11:04:40.091Z,53.33
2022-11-06T11:05:40.072Z,53.01
2022-11-06T11:06:40.034Z,53.01
2022-11-06T11:07:39.994Z,53.33
2022-11-06T11:08:40.130Z,53.66
2022-11-06T11:09:39.938Z,53.17
2022-11-06T11:10:39.869Z,53.50
2022-11-06T11:11:40.885Z,53.98
2022-11-06T11:12:39.884Z,54.14
2022-11-06T11:13:39.986Z,53.50
2022-11-06T11:14:39.915Z,53.50
2022-11-06T11:15:40.079Z,53.17
2022-11-06T11:16:39.940Z,53.17
2022-11-06T11:17:39.816Z,54.14
2022-11-06T11:18:39.792Z,53.98
2022-11-06T11:19:40.315Z,53.50
2022-11-06T11:20:40.051Z,53.01
2022-11-06T11:21:39.695Z,53.66
2022-11-06T11:22:39.733Z,53.98
2022-11-06T11:23:39.744Z,53.33
2022-11-06T11:24:39.807Z,50.92
2022-11-06T11:25:39.658Z,51.40
2022-11-06T11:26:39.756Z,52.69
2022-11-06T11:27:39.793Z,51.56
2022-11-06T11:28:39.705Z,53.50
2022-11-06T11:29:39.809Z,51.24
2022-11-06T11:30:39.692Z,50.92
2022-11-06T11:31:39.694Z,53.01
2022-11-06T11:32:39.678Z,51.40
2022-11-06T11:33:39.700Z,52.53
2022-11-06T11:34:42.407Z,51.40
2022-11-06T11:35:41.709Z,53.33
2022-11-06T11:36:39.783Z,51.24
2022-11-06T11:37:39.913Z,51.40
2022-11-06T11:38:40.020Z,51.40
2022-11-06T11:39:39.718Z,49.79
2022-11-06T11:40:39.623Z,51.88
2022-11-06T11:41:39.767Z,51.56
2022-11-06T11:42:40.077Z,51.24
2022-11-06T11:43:39.718Z,50.43
2022-11-06T11:44:39.769Z,50.11
2022-11-06T11:45:40.498Z,49.79
2022-11-06T11:46:39.548Z,49.47
2022-11-06T11:47:39.650Z,49.79
2022-11-06T11:48:39.524Z,50.92
2022-11-06T11:49:40.055Z,50.92
2022-11-06T11:50:39.531Z,52.37
2022-11-06T11:51:39.626Z,51.72
2022-11-06T11:52:41.967Z,50.60
2022-11-06T11:53:39.986Z,52.53
2022-11-06T11:54:39.549Z,53.33
2022-11-06T11:55:39.582Z,51.56
2022-11-06T11:57:41.524Z,51.40
2022-11-06T11:58:39.585Z,50.11
2022-11-06T11:59:39.510Z,50.92
2022-11-06T12:00:39.429Z,52.05
2022-11-06T12:01:39.519Z,50.92
2022-11-06T12:02:39.608Z,50.76
2022-11-06T12:03:39.499Z,50.92
2022-11-06T12:04:39.521Z,52.69
2022-11-06T12:05:39.514Z,53.01
2022-11-06T12:06:39.610Z,51.40
2022-11-06T12:07:44.944Z,52.69
2022-11-06T12:08:41.387Z,52.37
2022-11-06T12:09:39.572Z,52.53
2022-11-06T12:10:39.376Z,51.40
2022-11-06T12:11:39.545Z,50.92
2022-11-06T12:12:39.439Z,51.40
2022-11-06T12:13:39.415Z,51.88
2022-11-06T12:14:39.413Z,51.08
2022-11-06T12:15:39.499Z,51.40
2022-11-06T12:16:39.403Z,52.05
2022-11-06T12:17:39.393Z,51.88
2022-11-06T12:18:39.382Z,50.43
2022-11-06T12:19:39.511Z,50.43
2022-11-06T12:20:39.488Z,49.95
2022-11-06T12:21:39.383Z,50.60
2022-11-06T12:22:39.374Z,51.08
2022-11-06T12:23:39.511Z,49.95
2022-11-06T12:24:39.321Z,49.95
2022-11-06T12:25:39.274Z,49.47
2022-11-06T12:26:40.545Z,49.31
2022-11-06T12:27:39.238Z,48.98
2022-11-06T12:28:39.253Z,50.43
2022-11-06T12:29:39.261Z,50.92
2022-11-06T12:30:39.228Z,50.76
2022-11-06T12:31:39.299Z,49.79
2022-11-06T12:32:39.336Z,50.43
2022-11-06T12:34:04.985Z,51.40
2022-11-06T12:34:41.251Z,50.11
2022-11-06T12:35:39.372Z,50.60
2022-11-06T12:36:39.612Z,49.79
2022-11-06T12:37:39.229Z,50.27
2022-11-06T12:38:39.224Z,51.40
2022-11-06T12:39:39.250Z,50.60
2022-11-06T12:40:39.255Z,51.40
2022-11-06T12:41:39.257Z,50.11
2022-11-06T12:42:39.370Z,51.40
2022-11-06T12:43:40.284Z,50.43
2022-11-06T12:44:39.124Z,51.08
2022-11-06T12:45:39.097Z,50.60
2022-11-06T12:46:39.178Z,50.92
2022-11-06T12:47:39.266Z,50.92
2022-11-06T12:48:39.246Z,49.95
2022-11-06T12:49:39.235Z,51.40
2022-11-06T12:50:39.202Z,52.05
2022-11-06T12:51:39.148Z,51.88
2022-11-06T12:52:39.163Z,50.92
2022-11-06T12:53:39.219Z,50.60
2022-11-06T12:54:39.148Z,49.31